sensor_id;sensor_type;location;lat;lon;timestamp;pressure;altitude;pressure_sealevel;temperature;humidity
9822;BME280;4950;46.042;14.472;2022-10-23T00:01:39;98649.84;;;13.79;94.82
9822;BME280;4950;46.042;14.472;2022-10-23T00:04:09;98644.41;;;13.80;95.13
9822;BME280;4950;46.042;14.472;2022-10-23T00:06:37;98639.38;;;13.79;94.63
9822;BME280;4950;46.042;14.472;2022-10-23T00:09:07;98633.34;;;13.78;95.02
9822;BME280;4950;46.042;14.472;2022-10-23T00:11:34;98630.94;;;13.77;95.21
9822;BME280;4950;46.042;14.472;2022-10-23T00:14:02;98626.09;;;13.89;94.86
9822;BME280;4950;46.042;14.472;2022-10-23T00:16:29;98624.16;;;13.82;95.01
9822;BME280;4950;46.042;14.472;2022-10-23T00:18:56;98619.31;;;13.79;95.10
9822;BME280;4950;46.042;14.472;2022-10-23T00:21:23;98621.28;;;13.77;95.61
9822;BME280;4950;46.042;14.472;2022-10-23T00:23:52;98631.38;;;13.80;95.72
9822;BME280;4950;46.042;14.472;2022-10-23T00:26:19;98646.59;;;13.77;95.37
9822;BME280;4950;46.042;14.472;2022-10-23T00:28:47;98639.91;;;13.74;95.55
9822;BME280;4950;46.042;14.472;2022-10-23T00:31:14;98643.34;;;13.75;95.55
9822;BME280;4950;46.042;14.472;2022-10-23T00:33:41;98640.91;;;13.73;95.72
9822;BME280;4950;46.042;14.472;2022-10-23T00:36:10;98640.06;;;13.73;95.63
9822;BME280;4950;46.042;14.472;2022-10-23T00:38:38;98635.16;;;13.78;95.58
9822;BME280;4950;46.042;14.472;2022-10-23T00:41:07;98632.19;;;13.81;95.20
9822;BME280;4950;46.042;14.472;2022-10-23T00:43:56;98642.25;;;13.84;94.73
9822;BME280;4950;46.042;14.472;2022-10-23T00:46:23;98646.34;;;13.87;94.69
9822;BME280;4950;46.042;14.472;2022-10-23T00:48:50;98633.28;;;13.87;94.62
9822;BME280;4950;46.042;14.472;2022-10-23T00:51:17;98630.56;;;13.80;95.02
9822;BME280;4950;46.042;14.472;2022-10-23T00:53:44;98634.16;;;13.79;95.26
9822;BME280;4950;46.042;14.472;2022-10-23T00:56:15;98625.72;;;13.77;95.35
9822;BME280;4950;46.042;14.472;2022-10-23T00:58:42;98624.72;;;13.78;95.48
9822;BME280;4950;46.042;14.472;2022-10-23T01:01:16;98632.25;;;13.73;95.60
9822;BME280;4950;46.042;14.472;2022-10-23T01:03:43;98634.41;;;13.69;95.71
9822;BME280;4950;46.042;14.472;2022-10-23T01:06:13;98638.16;;;13.67;95.80
9822;BME280;4950;46.042;14.472;2022-10-23T01:08:48;98639.72;;;13.76;95.87
9822;BME280;4950;46.042;14.472;2022-10-23T01:11:22;98631.91;;;13.76;95.25
9822;BME280;4950;46.042;14.472;2022-10-23T01:13:57;98626.84;;;13.74;95.50
9822;BME280;4950;46.042;14.472;2022-10-23T01:16:32;98622.63;;;13.73;95.67
9822;BME280;4950;46.042;14.472;2022-10-23T01:19:10;98617.41;;;13.73;95.63
9822;BME280;4950;46.042;14.472;2022-10-23T01:21:49;98616.41;;;13.74;95.83
9822;BME280;4950;46.042;14.472;2022-10-23T01:24:30;98608.06;;;13.79;95.60
9822;BME280;4950;46.042;14.472;2022-10-23T01:27:20;98612.53;;;13.70;95.91
9822;BME280;4950;46.042;14.472;2022-10-23T01:29:52;98613.16;;;13.72;96.20
9822;BME280;4950;46.042;14.472;2022-10-23T01:32:29;98614.25;;;13.78;96.12
9822;BME280;4950;46.042;14.472;2022-10-23T01:35:01;98616.06;;;13.77;95.73
9822;BME280;4950;46.042;14.472;2022-10-23T01:37:33;98603.72;;;13.71;96.18
9822;BME280;4950;46.042;14.472;2022-10-23T01:40:03;98599.84;;;13.67;96.21
9822;BME280;4950;46.042;14.472;2022-10-23T01:42:36;98593.81;;;13.67;96.39
9822;BME280;4950;46.042;14.472;2022-10-23T01:45:07;98596.88;;;13.70;96.41
9822;BME280;4950;46.042;14.472;2022-10-23T01:47:35;98605.09;;;13.82;95.89
9822;BME280;4950;46.042;14.472;2022-10-23T01:50:04;98605.25;;;13.80;95.91
9822;BME280;4950;46.042;14.472;2022-10-23T01:52:31;98597.16;;;13.75;96.25
9822;BME280;4950;46.042;14.472;2022-10-23T01:54:59;98597.50;;;13.72;96.75
9822;BME280;4950;46.042;14.472;2022-10-23T01:57:29;98596.25;;;13.68;96.90
9822;BME280;4950;46.042;14.472;2022-10-23T02:00:06;98587.78;;;13.66;97.02
9822;BME280;4950;46.042;14.472;2022-10-23T02:02:35;98593.47;;;13.70;97.24
9822;BME280;4950;46.042;14.472;2022-10-23T02:05:06;98595.72;;;13.73;97.16
9822;BME280;4950;46.042;14.472;2022-10-23T02:07:35;98605.47;;;13.79;96.68
9822;BME280;4950;46.042;14.472;2022-10-23T02:10:03;98596.53;;;13.73;96.92
9822;BME280;4950;46.042;14.472;2022-10-23T02:12:36;98589.06;;;13.70;96.83
9822;BME280;4950;46.042;14.472;2022-10-23T02:15:09;98593.38;;;13.78;96.60
9822;BME280;4950;46.042;14.472;2022-10-23T02:17:44;98595.28;;;13.69;97.01
9822;BME280;4950;46.042;14.472;2022-10-23T02:20:18;98584.63;;;13.71;97.32
9822;BME280;4950;46.042;14.472;2022-10-23T02:22:53;98581.06;;;13.72;97.08
9822;BME280;4950;46.042;14.472;2022-10-23T02:25:27;98579.25;;;13.72;97.47
9822;BME280;4950;46.042;14.472;2022-10-23T02:27:57;98577.19;;;13.68;97.41
9822;BME280;4950;46.042;14.472;2022-10-23T02:30:28;98588.06;;;13.71;97.79
9822;BME280;4950;46.042;14.472;2022-10-23T02:32:56;98597.50;;;13.72;97.00
9822;BME280;4950;46.042;14.472;2022-10-23T02:35:24;98589.84;;;13.71;96.85
9822;BME280;4950;46.042;14.472;2022-10-23T02:37:52;98580.41;;;13.70;96.70
9822;BME280;4950;46.042;14.472;2022-10-23T02:40:19;98578.38;;;13.80;95.24
9822;BME280;4950;46.042;14.472;2022-10-23T02:42:49;98570.28;;;13.75;95.16
9822;BME280;4950;46.042;14.472;2022-10-23T02:45:25;98586.28;;;13.72;95.46
9822;BME280;4950;46.042;14.472;2022-10-23T02:47:58;98583.38;;;13.67;95.59
9822;BME280;4950;46.042;14.472;2022-10-23T02:50:30;98580.28;;;13.63;95.70
9822;BME280;4950;46.042;14.472;2022-10-23T02:53:05;98579.50;;;13.62;95.63
9822;BME280;4950;46.042;14.472;2022-10-23T02:55:43;98577.06;;;13.61;95.11
9822;BME280;4950;46.042;14.472;2022-10-23T02:58:18;98580.38;;;13.55;95.54
9822;BME280;4950;46.042;14.472;2022-10-23T03:00:50;98584.94;;;13.53;95.39
9822;BME280;4950;46.042;14.472;2022-10-23T03:03:21;98588.56;;;13.52;95.40
9822;BME280;4950;46.042;14.472;2022-10-23T03:05:50;98572.91;;;13.52;95.42
9822;BME280;4950;46.042;14.472;2022-10-23T03:08:17;98580.03;;;13.58;95.15
9822;BME280;4950;46.042;14.472;2022-10-23T03:10:44;98568.34;;;13.54;94.61
9822;BME280;4950;46.042;14.472;2022-10-23T03:13:11;98578.47;;;13.49;95.09
9822;BME280;4950;46.042;14.472;2022-10-23T03:15:37;98582.25;;;13.46;95.24
9822;BME280;4950;46.042;14.472;2022-10-23T03:18:04;98580.75;;;13.52;95.27
9822;BME280;4950;46.042;14.472;2022-10-23T03:20:32;98587.81;;;13.43;95.44
9822;BME280;4950;46.042;14.472;2022-10-23T03:22:59;98579.81;;;13.45;95.58
9822;BME280;4950;46.042;14.472;2022-10-23T03:25:25;98592.22;;;13.42;95.43
9822;BME280;4950;46.042;14.472;2022-10-23T03:27:52;98598.22;;;13.43;95.61
9822;BME280;4950;46.042;14.472;2022-10-23T03:30:19;98594.34;;;13.39;95.62
9822;BME280;4950;46.042;14.472;2022-10-23T03:32:46;98586.47;;;13.47;95.92
9822;BME280;4950;46.042;14.472;2022-10-23T03:35:12;98590.06;;;13.46;95.71
9822;BME280;4950;46.042;14.472;2022-10-23T03:37:40;98577.53;;;13.41;95.92
9822;BME280;4950;46.042;14.472;2022-10-23T03:40:08;98578.38;;;13.42;95.59
9822;BME280;4950;46.042;14.472;2022-10-23T03:42:35;98585.34;;;13.41;95.54
9822;BME280;4950;46.042;14.472;2022-10-23T03:45:01;98584.09;;;13.37;95.61
9822;BME280;4950;46.042;14.472;2022-10-23T03:47:28;98579.88;;;13.36;95.56
9822;BME280;4950;46.042;14.472;2022-10-23T03:49:56;98577.44;;;13.35;95.80
9822;BME280;4950;46.042;14.472;2022-10-23T03:52:23;98579.72;;;13.38;95.53
9822;BME280;4950;46.042;14.472;2022-10-23T03:54:51;98572.38;;;13.33;95.65
9822;BME280;4950;46.042;14.472;2022-10-23T03:57:18;98568.97;;;13.33;95.46
9822;BME280;4950;46.042;14.472;2022-10-23T03:59:44;98569.94;;;13.32;95.49
9822;BME280;4950;46.042;14.472;2022-10-23T04:02:11;98572.88;;;13.29;95.33
9822;BME280;4950;46.042;14.472;2022-10-23T04:04:37;98571.31;;;13.19;95.51
9822;BME280;4950;46.042;14.472;2022-10-23T04:07:04;98572.00;;;13.13;96.01
9822;BME280;4950;46.042;14.472;2022-10-23T04:09:30;98574.09;;;13.18;96.12
9822;BME280;4950;46.042;14.472;2022-10-23T04:11:58;98575.09;;;13.17;96.01
9822;BME280;4950;46.042;14.472;2022-10-23T04:14:25;98575.38;;;13.22;96.09
9822;BME280;4950;46.042;14.472;2022-10-23T04:16:52;98561.31;;;13.31;95.82
9822;BME280;4950;46.042;14.472;2022-10-23T04:19:18;98561.25;;;13.39;95.00
9822;BME280;4950;46.042;14.472;2022-10-23T04:21:45;98554.13;;;13.33;95.12
9822;BME280;4950;46.042;14.472;2022-10-23T04:24:12;98563.13;;;13.31;95.28
9822;BME280;4950;46.042;14.472;2022-10-23T04:26:39;98548.56;;;13.36;94.96
9822;BME280;4950;46.042;14.472;2022-10-23T04:29:06;98555.44;;;13.29;94.92
9822;BME280;4950;46.042;14.472;2022-10-23T04:31:33;98558.03;;;13.29;95.05
9822;BME280;4950;46.042;14.472;2022-10-23T04:34:00;98559.06;;;13.28;94.64
9822;BME280;4950;46.042;14.472;2022-10-23T04:36:26;98567.84;;;13.27;95.07
9822;BME280;4950;46.042;14.472;2022-10-23T04:38:53;98575.03;;;13.25;95.60
9822;BME280;4950;46.042;14.472;2022-10-23T04:41:19;98568.22;;;13.24;95.21
9822;BME280;4950;46.042;14.472;2022-10-23T04:43:46;98548.50;;;13.21;95.56
9822;BME280;4950;46.042;14.472;2022-10-23T04:46:14;98557.78;;;13.24;95.94
9822;BME280;4950;46.042;14.472;2022-10-23T04:48:41;98555.81;;;13.26;95.64
9822;BME280;4950;46.042;14.472;2022-10-23T04:51:08;98553.19;;;13.26;95.61
9822;BME280;4950;46.042;14.472;2022-10-23T04:53:35;98554.34;;;13.23;95.39
9822;BME280;4950;46.042;14.472;2022-10-23T04:56:03;98544.38;;;13.27;95.43
9822;BME280;4950;46.042;14.472;2022-10-23T04:58:30;98546.19;;;13.27;95.12
9822;BME280;4950;46.042;14.472;2022-10-23T05:00:57;98547.16;;;13.26;95.54
9822;BME280;4950;46.042;14.472;2022-10-23T05:03:26;98544.75;;;13.24;95.37
9822;BME280;4950;46.042;14.472;2022-10-23T05:05:54;98540.50;;;13.23;95.55
9822;BME280;4950;46.042;14.472;2022-10-23T05:08:21;98537.56;;;13.26;95.25
9822;BME280;4950;46.042;14.472;2022-10-23T05:10:48;98545.69;;;13.31;95.18
9822;BME280;4950;46.042;14.472;2022-10-23T05:13:15;98541.31;;;13.23;95.23
9822;BME280;4950;46.042;14.472;2022-10-23T05:15:44;98544.06;;;13.22;95.71
9822;BME280;4950;46.042;14.472;2022-10-23T05:18:16;98546.59;;;13.38;94.69
9822;BME280;4950;46.042;14.472;2022-10-23T05:20:49;98556.44;;;13.28;94.67
9822;BME280;4950;46.042;14.472;2022-10-23T05:23:19;98543.75;;;13.25;95.32
9822;BME280;4950;46.042;14.472;2022-10-23T05:25:47;98556.16;;;13.23;95.08
9822;BME280;4950;46.042;14.472;2022-10-23T05:28:14;98538.88;;;13.22;94.80
9822;BME280;4950;46.042;14.472;2022-10-23T05:30:41;98535.28;;;13.23;94.85
9822;BME280;4950;46.042;14.472;2022-10-23T05:33:08;98551.22;;;13.28;94.70
9822;BME280;4950;46.042;14.472;2022-10-23T05:35:35;98555.31;;;13.31;94.27
9822;BME280;4950;46.042;14.472;2022-10-23T05:38:05;98558.91;;;13.21;94.54
9822;BME280;4950;46.042;14.472;2022-10-23T05:40:32;98549.66;;;13.19;94.92
9822;BME280;4950;46.042;14.472;2022-10-23T05:42:59;98544.13;;;13.14;95.06
9822;BME280;4950;46.042;14.472;2022-10-23T05:45:25;98546.91;;;13.12;95.34
9822;BME280;4950;46.042;14.472;2022-10-23T05:47:52;98550.00;;;13.16;95.38
9822;BME280;4950;46.042;14.472;2022-10-23T05:50:19;98556.38;;;13.13;95.08
9822;BME280;4950;46.042;14.472;2022-10-23T05:52:46;98545.13;;;13.13;95.21
9822;BME280;4950;46.042;14.472;2022-10-23T05:55:14;98548.09;;;13.10;94.82
9822;BME280;4950;46.042;14.472;2022-10-23T05:57:41;98554.28;;;13.09;95.07
9822;BME280;4950;46.042;14.472;2022-10-23T06:00:09;98559.31;;;13.10;95.18
9822;BME280;4950;46.042;14.472;2022-10-23T06:02:36;98563.66;;;13.18;95.26
9822;BME280;4950;46.042;14.472;2022-10-23T06:05:03;98553.44;;;13.16;94.88
9822;BME280;4950;46.042;14.472;2022-10-23T06:07:30;98545.94;;;13.13;95.21
9822;BME280;4950;46.042;14.472;2022-10-23T06:09:56;98545.13;;;13.13;95.36
9822;BME280;4950;46.042;14.472;2022-10-23T06:12:24;98552.13;;;13.12;95.38
9822;BME280;4950;46.042;14.472;2022-10-23T06:14:51;98558.97;;;13.13;95.62
9822;BME280;4950;46.042;14.472;2022-10-23T06:17:17;98559.28;;;13.18;95.28
9822;BME280;4950;46.042;14.472;2022-10-23T06:19:44;98564.03;;;13.15;95.43
9822;BME280;4950;46.042;14.472;2022-10-23T06:22:11;98565.16;;;13.12;95.67
9822;BME280;4950;46.042;14.472;2022-10-23T06:24:38;98562.56;;;13.12;95.53
9822;BME280;4950;46.042;14.472;2022-10-23T06:27:04;98572.81;;;13.14;95.50
9822;BME280;4950;46.042;14.472;2022-10-23T06:29:32;98582.28;;;13.15;95.65
9822;BME280;4950;46.042;14.472;2022-10-23T06:31:59;98585.34;;;13.18;95.50
9822;BME280;4950;46.042;14.472;2022-10-23T06:34:26;98586.31;;;13.17;95.35
9822;BME280;4950;46.042;14.472;2022-10-23T06:36:52;98597.84;;;13.23;95.65
9822;BME280;4950;46.042;14.472;2022-10-23T06:39:19;98595.06;;;13.33;94.52
9822;BME280;4950;46.042;14.472;2022-10-23T06:41:46;98574.41;;;13.23;95.00
9822;BME280;4950;46.042;14.472;2022-10-23T06:44:13;98587.44;;;13.23;95.26
9822;BME280;4950;46.042;14.472;2022-10-23T06:46:41;98595.22;;;13.31;94.92
9822;BME280;4950;46.042;14.472;2022-10-23T06:49:12;98588.69;;;13.27;94.76
9822;BME280;4950;46.042;14.472;2022-10-23T06:51:38;98588.41;;;13.30;95.16
9822;BME280;4950;46.042;14.472;2022-10-23T06:54:05;98594.91;;;13.26;95.55
9822;BME280;4950;46.042;14.472;2022-10-23T06:56:31;98604.03;;;13.30;95.58
9822;BME280;4950;46.042;14.472;2022-10-23T06:58:59;98603.69;;;13.33;95.03
9822;BME280;4950;46.042;14.472;2022-10-23T07:01:26;98599.94;;;13.28;95.28
9822;BME280;4950;46.042;14.472;2022-10-23T07:03:53;98606.47;;;13.32;95.25
9822;BME280;4950;46.042;14.472;2022-10-23T07:06:20;98606.75;;;13.37;95.26
9822;BME280;4950;46.042;14.472;2022-10-23T07:08:47;98596.16;;;13.38;94.69
9822;BME280;4950;46.042;14.472;2022-10-23T07:11:13;98596.16;;;13.38;94.98
9822;BME280;4950;46.042;14.472;2022-10-23T07:13:40;98592.50;;;13.48;94.59
9822;BME280;4950;46.042;14.472;2022-10-23T07:16:10;98590.88;;;13.47;94.79
9822;BME280;4950;46.042;14.472;2022-10-23T07:18:37;98605.41;;;13.41;94.80
9822;BME280;4950;46.042;14.472;2022-10-23T07:21:05;98611.28;;;13.43;95.38
9822;BME280;4950;46.042;14.472;2022-10-23T07:23:32;98600.84;;;13.43;94.63
9822;BME280;4950;46.042;14.472;2022-10-23T07:26:03;98604.44;;;13.42;94.36
9822;BME280;4950;46.042;14.472;2022-10-23T07:28:30;98603.19;;;13.38;94.67
9822;BME280;4950;46.042;14.472;2022-10-23T07:30:57;98608.41;;;13.38;94.99
9822;BME280;4950;46.042;14.472;2022-10-23T07:33:24;98613.63;;;13.38;95.17
9822;BME280;4950;46.042;14.472;2022-10-23T07:35:50;98611.09;;;13.45;95.00
9822;BME280;4950;46.042;14.472;2022-10-23T07:38:18;98596.72;;;13.49;94.40
9822;BME280;4950;46.042;14.472;2022-10-23T07:40:45;98600.59;;;13.53;94.35
9822;BME280;4950;46.042;14.472;2022-10-23T07:43:12;98599.25;;;13.57;94.46
9822;BME280;4950;46.042;14.472;2022-10-23T07:45:38;98614.28;;;13.55;94.52
9822;BME280;4950;46.042;14.472;2022-10-23T07:48:05;98622.34;;;13.68;93.61
9822;BME280;4950;46.042;14.472;2022-10-23T07:50:32;98618.13;;;13.67;93.78
9822;BME280;4950;46.042;14.472;2022-10-23T07:52:58;98619.63;;;13.61;94.05
9822;BME280;4950;46.042;14.472;2022-10-23T07:55:26;98616.56;;;13.58;94.19
9822;BME280;4950;46.042;14.472;2022-10-23T07:57:53;98611.03;;;13.53;94.32
9822;BME280;4950;46.042;14.472;2022-10-23T08:00:19;98614.44;;;13.53;94.43
9822;BME280;4950;46.042;14.472;2022-10-23T08:02:46;98611.69;;;13.55;94.45
9822;BME280;4950;46.042;14.472;2022-10-23T08:05:14;98610.25;;;13.52;94.49
9822;BME280;4950;46.042;14.472;2022-10-23T08:07:43;98604.84;;;13.54;94.55
9822;BME280;4950;46.042;14.472;2022-10-23T08:10:10;98596.94;;;13.62;94.11
9822;BME280;4950;46.042;14.472;2022-10-23T08:12:38;98600.84;;;13.66;93.38
9822;BME280;4950;46.042;14.472;2022-10-23T08:15:05;98605.25;;;13.66;93.55
9822;BME280;4950;46.042;14.472;2022-10-23T08:17:32;98608.31;;;13.69;93.28
9822;BME280;4950;46.042;14.472;2022-10-23T08:19:58;98616.81;;;13.63;93.35
9822;BME280;4950;46.042;14.472;2022-10-23T08:22:25;98624.16;;;13.68;93.58
9822;BME280;4950;46.042;14.472;2022-10-23T08:24:52;98622.63;;;13.73;93.27
9822;BME280;4950;46.042;14.472;2022-10-23T08:27:18;98622.00;;;13.71;93.53
9822;BME280;4950;46.042;14.472;2022-10-23T08:29:46;98624.78;;;13.70;93.33
9822;BME280;4950;46.042;14.472;2022-10-23T08:32:13;98626.59;;;13.69;93.91
9822;BME280;4950;46.042;14.472;2022-10-23T08:34:39;98627.03;;;13.73;93.88
9822;BME280;4950;46.042;14.472;2022-10-23T08:37:06;98620.53;;;13.69;93.48
9822;BME280;4950;46.042;14.472;2022-10-23T08:39:33;98611.91;;;13.68;93.25
9822;BME280;4950;46.042;14.472;2022-10-23T08:41:59;98607.69;;;13.67;93.40
9822;BME280;4950;46.042;14.472;2022-10-23T08:44:30;98601.47;;;13.68;93.64
9822;BME280;4950;46.042;14.472;2022-10-23T08:47:04;98596.16;;;13.76;93.76
9822;BME280;4950;46.042;14.472;2022-10-23T08:49:38;98595.81;;;13.79;94.05
9822;BME280;4950;46.042;14.472;2022-10-23T08:52:14;98619.16;;;13.81;93.96
9822;BME280;4950;46.042;14.472;2022-10-23T08:55:01;98624.75;;;13.93;93.92
9822;BME280;4950;46.042;14.472;2022-10-23T08:57:33;98613.78;;;13.97;92.49
9822;BME280;4950;46.042;14.472;2022-10-23T09:00:05;98612.34;;;13.95;93.27
9822;BME280;4950;46.042;14.472;2022-10-23T09:02:37;98615.03;;;13.87;93.55
9822;BME280;4950;46.042;14.472;2022-10-23T09:05:12;98630.84;;;13.85;93.88
9822;BME280;4950;46.042;14.472;2022-10-23T09:07:56;98611.78;;;13.85;93.92
9822;BME280;4950;46.042;14.472;2022-10-23T09:10:50;98618.25;;;13.89;93.68
9822;BME280;4950;46.042;14.472;2022-10-23T09:13:39;98616.66;;;14.02;92.78
9822;BME280;4950;46.042;14.472;2022-10-23T09:16:17;98614.16;;;14.09;92.14
9822;BME280;4950;46.042;14.472;2022-10-23T09:18:49;98609.38;;;14.13;92.40
9822;BME280;4950;46.042;14.472;2022-10-23T09:21:17;98610.56;;;14.10;92.68
9822;BME280;4950;46.042;14.472;2022-10-23T09:23:45;98614.78;;;14.11;93.25
9822;BME280;4950;46.042;14.472;2022-10-23T09:26:13;98610.91;;;14.07;93.40
9822;BME280;4950;46.042;14.472;2022-10-23T09:28:45;98605.25;;;14.18;93.69
9822;BME280;4950;46.042;14.472;2022-10-23T09:31:12;98606.69;;;14.21;93.82
9822;BME280;4950;46.042;14.472;2022-10-23T09:33:39;98607.69;;;14.20;93.50
9822;BME280;4950;46.042;14.472;2022-10-23T09:36:17;98605.88;;;14.20;92.63
9822;BME280;4950;46.042;14.472;2022-10-23T09:38:48;98601.81;;;14.33;91.97
9822;BME280;4950;46.042;14.472;2022-10-23T09:41:19;98604.44;;;14.33;91.68
9822;BME280;4950;46.042;14.472;2022-10-23T09:43:46;98606.94;;;14.41;91.63
9822;BME280;4950;46.042;14.472;2022-10-23T09:46:12;98611.28;;;14.34;92.12
9822;BME280;4950;46.042;14.472;2022-10-23T09:48:39;98603.72;;;14.39;92.79
9822;BME280;4950;46.042;14.472;2022-10-23T09:51:16;98614.16;;;14.39;92.16
9822;BME280;4950;46.042;14.472;2022-10-23T09:53:48;98617.16;;;14.36;92.20
9822;BME280;4950;46.042;14.472;2022-10-23T09:56:24;98618.22;;;14.41;91.34
9822;BME280;4950;46.042;14.472;2022-10-23T09:58:53;98610.75;;;14.38;91.68
9822;BME280;4950;46.042;14.472;2022-10-23T10:01:22;98601.66;;;14.34;92.18
9822;BME280;4950;46.042;14.472;2022-10-23T10:03:50;98596.13;;;14.29;92.74
9822;BME280;4950;46.042;14.472;2022-10-23T10:06:22;98604.44;;;14.33;92.91
9822;BME280;4950;46.042;14.472;2022-10-23T10:08:52;98606.31;;;14.39;93.09
9822;BME280;4950;46.042;14.472;2022-10-23T10:11:29;98609.03;;;14.46;93.61
9822;BME280;4950;46.042;14.472;2022-10-23T10:14:34;98609.91;;;14.53;93.42
9822;BME280;4950;46.042;14.472;2022-10-23T10:17:05;98607.13;;;14.54;93.33
9822;BME280;4950;46.042;14.472;2022-10-23T10:19:43;98602.22;;;14.59;93.71
9822;BME280;4950;46.042;14.472;2022-10-23T10:22:25;98600.06;;;14.63;94.07
9822;BME280;4950;46.042;14.472;2022-10-23T10:25:00;98600.75;;;14.72;93.48
9822;BME280;4950;46.042;14.472;2022-10-23T10:27:39;98603.53;;;14.85;93.69
9822;BME280;4950;46.042;14.472;2022-10-23T10:30:12;98601.25;;;14.97;94.27
9822;BME280;4950;46.042;14.472;2022-10-23T10:32:45;98591.44;;;15.20;91.71
9822;BME280;4950;46.042;14.472;2022-10-23T10:35:21;98583.69;;;15.12;92.41
9822;BME280;4950;46.042;14.472;2022-10-23T10:38:03;98583.66;;;15.06;92.53
9822;BME280;4950;46.042;14.472;2022-10-23T10:40:37;98572.44;;;15.12;92.65
9822;BME280;4950;46.042;14.472;2022-10-23T10:43:13;98578.78;;;15.24;91.73
9822;BME280;4950;46.042;14.472;2022-10-23T10:45:46;98583.22;;;15.24;91.49
9822;BME280;4950;46.042;14.472;2022-10-23T10:48:24;98576.44;;;15.29;91.61
9822;BME280;4950;46.042;14.472;2022-10-23T10:51:00;98570.56;;;15.49;91.76
9822;BME280;4950;46.042;14.472;2022-10-23T10:53:39;98577.66;;;15.55;91.90
9822;BME280;4950;46.042;14.472;2022-10-23T10:56:11;98586.56;;;15.60;91.55
9822;BME280;4950;46.042;14.472;2022-10-23T10:58:45;98575.72;;;15.64;91.12
9822;BME280;4950;46.042;14.472;2022-10-23T11:01:16;98572.28;;;15.63;90.10
9822;BME280;4950;46.042;14.472;2022-10-23T11:03:53;98568.47;;;15.66;90.10
9822;BME280;4950;46.042;14.472;2022-10-23T11:06:23;98565.50;;;15.69;89.80
9822;BME280;4950;46.042;14.472;2022-10-23T11:08:53;98559.53;;;15.75;90.40
9822;BME280;4950;46.042;14.472;2022-10-23T11:11:23;98556.41;;;15.93;90.21
9822;BME280;4950;46.042;14.472;2022-10-23T11:13:52;98542.75;;;15.97;88.94
9822;BME280;4950;46.042;14.472;2022-10-23T11:16:21;98540.75;;;15.99;89.29
9822;BME280;4950;46.042;14.472;2022-10-23T11:18:58;98539.13;;;15.98;89.88
9822;BME280;4950;46.042;14.472;2022-10-23T11:21:34;98528.69;;;16.05;89.55
9822;BME280;4950;46.042;14.472;2022-10-23T11:24:24;98530.69;;;16.03;89.40
9822;BME280;4950;46.042;14.472;2022-10-23T11:27:08;98531.50;;;16.04;89.58
9822;BME280;4950;46.042;14.472;2022-10-23T11:30:00;98536.59;;;16.12;89.63
9822;BME280;4950;46.042;14.472;2022-10-23T11:32:42;98533.22;;;16.25;89.00
9822;BME280;4950;46.042;14.472;2022-10-23T11:35:21;98528.44;;;16.35;89.04
9822;BME280;4950;46.042;14.472;2022-10-23T11:37:57;98523.41;;;16.40;89.75
9822;BME280;4950;46.042;14.472;2022-10-23T11:40:26;98531.31;;;16.47;89.82
9822;BME280;4950;46.042;14.472;2022-10-23T11:42:52;98527.91;;;16.53;89.80
9822;BME280;4950;46.042;14.472;2022-10-23T11:45:40;98514.25;;;16.71;89.04
9822;BME280;4950;46.042;14.472;2022-10-23T11:48:20;98509.59;;;16.66;89.10
9822;BME280;4950;46.042;14.472;2022-10-23T11:50:52;98499.72;;;16.68;89.28
9822;BME280;4950;46.042;14.472;2022-10-23T11:53:26;98493.28;;;16.71;88.78
9822;BME280;4950;46.042;14.472;2022-10-23T11:56:00;98499.00;;;16.94;89.28
9822;BME280;4950;46.042;14.472;2022-10-23T11:58:29;98515.16;;;17.31;88.68
9822;BME280;4950;46.042;14.472;2022-10-23T12:04:01;98500.59;;;17.82;85.20
9822;BME280;4950;46.042;14.472;2022-10-23T12:06:31;98493.50;;;17.83;85.68
9822;BME280;4950;46.042;14.472;2022-10-23T12:09:06;98494.09;;;17.98;84.23
9822;BME280;4950;46.042;14.472;2022-10-23T12:11:42;98487.47;;;17.89;84.53
9822;BME280;4950;46.042;14.472;2022-10-23T12:14:28;98475.13;;;17.83;86.01
9822;BME280;4950;46.042;14.472;2022-10-23T12:16:55;98475.34;;;17.81;86.58
9822;BME280;4950;46.042;14.472;2022-10-23T12:19:24;98474.31;;;17.82;86.77
9822;BME280;4950;46.042;14.472;2022-10-23T12:21:52;98475.53;;;17.80;86.53
9822;BME280;4950;46.042;14.472;2022-10-23T12:24:33;98479.59;;;17.75;86.08
9822;BME280;4950;46.042;14.472;2022-10-23T12:27:15;98470.69;;;17.76;86.31
9822;BME280;4950;46.042;14.472;2022-10-23T12:29:55;98467.47;;;17.88;85.19
9822;BME280;4950;46.042;14.472;2022-10-23T12:32:35;98465.03;;;17.80;84.76
9822;BME280;4950;46.042;14.472;2022-10-23T12:35:20;98457.56;;;17.83;85.27
9822;BME280;4950;46.042;14.472;2022-10-23T12:38:04;98452.06;;;18.05;83.19
9822;BME280;4950;46.042;14.472;2022-10-23T12:40:34;98454.06;;;18.09;82.57
9822;BME280;4950;46.042;14.472;2022-10-23T12:43:01;98451.44;;;18.09;82.05
9822;BME280;4950;46.042;14.472;2022-10-23T12:45:31;98449.03;;;18.01;82.18
9822;BME280;4950;46.042;14.472;2022-10-23T12:47:58;98460.78;;;17.92;82.31
9822;BME280;4950;46.042;14.472;2022-10-23T12:50:26;98449.28;;;17.80;83.58
9822;BME280;4950;46.042;14.472;2022-10-23T12:52:55;98446.44;;;17.74;84.30
9822;BME280;4950;46.042;14.472;2022-10-23T12:55:23;98439.59;;;17.73;85.03
9822;BME280;4950;46.042;14.472;2022-10-23T12:57:50;98436.16;;;17.80;85.46
9822;BME280;4950;46.042;14.472;2022-10-23T13:00:21;98427.00;;;18.02;85.24
9822;BME280;4950;46.042;14.472;2022-10-23T13:02:57;98429.16;;;18.19;84.89
9822;BME280;4950;46.042;14.472;2022-10-23T13:05:24;98429.69;;;18.34;83.86
9822;BME280;4950;46.042;14.472;2022-10-23T13:07:52;98423.13;;;18.50;84.13
9822;BME280;4950;46.042;14.472;2022-10-23T13:10:20;98420.09;;;18.78;83.71
9822;BME280;4950;46.042;14.472;2022-10-23T13:12:52;98419.16;;;18.98;82.69
9822;BME280;4950;46.042;14.472;2022-10-23T13:15:22;98423.94;;;19.07;82.21
9822;BME280;4950;46.042;14.472;2022-10-23T13:18:02;98427.81;;;19.05;81.88
9822;BME280;4950;46.042;14.472;2022-10-23T13:20:30;98424.00;;;19.01;81.90
9822;BME280;4950;46.042;14.472;2022-10-23T13:23:07;98418.56;;;18.96;82.25
9822;BME280;4950;46.042;14.472;2022-10-23T13:25:36;98420.81;;;18.92;82.61
9822;BME280;4950;46.042;14.472;2022-10-23T13:28:22;98410.78;;;18.82;82.76
9822;BME280;4950;46.042;14.472;2022-10-23T13:31:05;98406.56;;;18.81;83.37